KCAD/CAD METAR and TAF weather

Enter ICAO airport designator
Station Type Date Time Source
KCAD METAR 2018/09/21 23:35 UTC NOAA

KCAD 212335Z AUTO 31012G21KT 10SM OVC034 11/08 A3002 RMK AO2 T01180089


Station Type Date Time Source
KCAD Decoded METAR 2018/09/21 23:35 UTC NOAA

Cadillac / Wexford County, MI, United States (KCAD) 44-17N 085-25W
Sep 21, 2018 - 07:35 PM EDT / 2018.09.21 2335 UTC
Wind: from the NW (310 degrees) at 14 MPH (12 KT) gusting to 24 MPH (21 KT):0
Visibility: 10 mile(s):0
Sky conditions: overcast
Temperature: 53.2 F (11.8 C)
Dew Point: 48.0 F (8.9 C)
Relative Humidity: 82%
Pressure (altimeter): 30.02 in. Hg (1016 hPa)
ob: KCAD 212335Z AUTO 31012G21KT 10SM OVC034 11/08 A3002 RMK AO2 T01180089
cycle: 23

Station Type Date Time Source
KCAD TAF UTC NOAA

Error!


Example: see airport list